Terminal Aerodrome Forecast
Issued by NWS

Home | Current Version | Previous Version | Text Only | Print | Product List | Glossary Off
Versions: 1 2 3 4 5 6 7 8 9 10 11 12 13 14 15 16 17 18 19

395
FTUS43 KMPX 170528
TAFAXN
TAF
KAXN 170528Z 1706/1806 VRB03KT 4SM BR OVC004
     FM170800 00000KT 1/4SM FZFG VV002
     FM171600 21005KT 2SM BR OVC007
     FM172000 22006KT P6SM BKN020
     FM172300 20007KT P6SM SCT025=

USA.gov is the U.S. government's official web portal to all federal, state and local government web resources and services.